Flight Track Log - Related Links

Times and Time Zones

All times are in EDT time to prevent confusion due to time zone crossing. See the CTL18 flight status page for this flight to view local times or setup timezone preferences in your user account.

Time Position Orientation Groundspeed Altitude Reporting Facility
EDT Latitude Longitude Course Direction KTS MPH feet Rate Location/Type
Tue 09:53:19 PM 41.5519 -81.7292 339° North 146 168 2,100  Level Cleveland Center
Tue 09:54:19 PM 41.5786 -81.7683 312° West 148 170 2,600 496 Climbing Cleveland Center
Tue 09:55:20 PM 41.5906 -81.8158 289° West 136 157 3,100 492 Climbing Cleveland Center
Tue 09:56:21 PM 41.5964 -81.8686 278° West 136 157 3,600 446 Climbing Cleveland Center
Tue 09:57:21 PM 41.5958 -81.9158 269° West 135 155 4,000 248 Climbing Cleveland Center
Tue 09:58:22 PM 41.5992 -81.9686 275° West 147 169 4,100 98 Climbing Cleveland Center
Tue 09:59:23 PM 41.6028 -82.0242 275° West 144 166 4,200  Climbing Cleveland Center
Tue 10:00:23 PM 41.6083 -82.0800 278° West 142 163 4,100 -50 Descending Cleveland Center
Tue 10:01:24 PM 41.6139 -82.1328 278° West 145 167 4,100  Level Cleveland Center
Tue 10:02:24 PM 41.6194 -82.1858 278° West 146 168 4,100  Level Cleveland Center
Tue 10:03:25 PM 41.6247 -82.2414 277° West 143 165 4,100  Level Cleveland Center
Tue 10:04:26 PM 41.6303 -82.2917 278° West 143 165 4,100  Level Cleveland Center
Tue 10:05:26 PM 41.6358 -82.3472 278° West 143 165 4,100  Level Cleveland Center
Tue 10:06:27 PM 41.6392 -82.4003 275° West 147 169 4,100  Level Cleveland Center
Tue 10:07:28 PM 41.6467 -82.4506 281° West 144 166 4,100  Level Cleveland Center
Tue 10:08:10 PM 41.6522 -82.4894 281° West 145 167 4,100 -62 Level Cleveland Center
Tue 10:09:05 PM 41.6597 -82.5369 282° West 145 167 4,000 -52 Descending Cleveland Center
Tue 10:10:06 PM 41.6947 -82.5686 326° Northwest 159 183 4,000  Level Cleveland Center
Tue 10:11:01 PM 41.7297 -82.5892 336° Northwest 159 183 4,000 52 Level Cleveland Center
Tue 10:12:02 PM 41.7731 -82.6156 336° Northwest 158 182 4,100 47 Climbing Cleveland Center
Tue 10:13:09 PM 41.8164 -82.6392 338° Northwest 159 183 4,100  Level Cleveland Center
Tue 10:14:16 PM 41.8597 -82.6658 335° Northwest 159 183 4,100 -47 Level Cleveland Center
Tue 10:15:17 PM 41.9053 -82.6897 339° North 159 183 4,000 -52 Descending Cleveland Center
Tue 10:16:11 PM 41.9422 -82.7103 338° Northwest 160 184 4,000 -52 Level Cleveland Center
Tue 10:17:12 PM 41.9814 -82.7339 336° Northwest 155 178 3,900  Descending Cleveland Center
Tue 10:18:07 PM 42.0189 -82.7464 346° North 165 190 4,000 98 Climbing Cleveland Center
Tue 10:19:14 PM 42.0683 -82.7733 338° Northwest 160 184 4,100 47 Climbing Cleveland Center
Tue 10:20:15 PM 42.1117 -82.7944 340° North 165 190 4,100 -49 Level Cleveland Center
Tue 10:21:16 PM 42.1464 -82.8319 321° Northwest 162 186 4,000 -50 Descending Cleveland Center
Tue 10:22:16 PM 42.1853 -82.8669 326° Northwest 159 183 4,000 -50 Level Cleveland Center
Tue 10:23:17 PM 42.2181 -82.9019 322° Northwest 157 181 3,900  Descending Cleveland Center
Tue 10:24:12 PM 42.2528 -82.9311 328° Northwest 159 183 4,000 52 Climbing Cleveland Center
Tue 10:25:13 PM 42.2897 -82.9606 329° Northwest 157 181 4,000 -45 Level Cleveland Center
Tue 10:26:26 PM 42.3325 -83.0100 319° Northwest 160 184 3,900  Descending Cleveland Center
Tue 10:27:27 PM 42.3714 -83.0425 328° Northwest 158 182 4,000  Climbing Cleveland Center
Tue 10:28:21 PM 42.4019 -83.0744 322° Northwest 160 184 3,900  Descending Cleveland Center
Tue 10:29:22 PM 42.4408 -83.1042 331° Northwest 161 185 4,000  Climbing Cleveland Center
Tue 10:30:29 PM 42.4839 -83.1453 325° Northwest 164 189 3,900 -344 Descending Cleveland Center
Tue 10:31:24 PM 42.5119 -83.1886 311° West 175 201 3,300 -550 Descending Cleveland Center
Tue 10:32:18 PM 42.5467 -83.2267 321° Northwest 169 194 2,900 -331 Descending Cleveland Center
Tue 10:33:31 PM 42.5850 -83.2764 316° Northwest 163 188 2,600 -224 Descending Cleveland Center
Tue 10:34:32 PM 42.6194 -83.3172 319° Northwest 158 182 2,400 -331 Descending Cleveland Center
Tue 10:35:38 PM 42.6497 -83.3639 311° West 150 173 1,900 -495 Descending Cleveland Center
Tue 10:36:21 PM 42.6656 -83.3900 310° West 124 143 1,500 -558 Descending Cleveland Center
Tue 10:38:00 PM 42.6500 -83.4167 304° West  Level FlightAware Approximate
Tue 10:45:00 PM 42.6656 -83.4205 304° West  Level Estimated

Login

Don't have an account? Register now (free) for customized features, flight alerts, and more!